createdAt,value
2017-08-09T00:00:19.221Z,23.1
2017-08-09T00:01:21.741Z,23.1
2017-08-09T00:02:24.258Z,23.1
2017-08-09T00:03:26.761Z,23.1
2017-08-09T00:04:29.260Z,23.1
2017-08-09T00:05:31.754Z,23.1
2017-08-09T00:06:34.244Z,23.1
2017-08-09T00:07:36.759Z,23.1
2017-08-09T00:08:39.255Z,23.1
2017-08-09T00:09:41.755Z,23
2017-08-09T00:10:44.602Z,23
2017-08-09T00:11:47.100Z,23.1
2017-08-09T00:12:49.588Z,23.1
2017-08-09T00:13:52.088Z,23
2017-08-09T00:14:54.575Z,23.1
2017-08-09T00:15:57.748Z,23
2017-08-09T00:17:00.267Z,23
2017-08-09T00:18:02.771Z,23
2017-08-09T00:19:05.355Z,23
2017-08-09T00:20:08.190Z,23
2017-08-09T00:21:11.023Z,23.1
2017-08-09T00:22:13.608Z,23
2017-08-09T00:23:16.095Z,23
2017-08-09T00:24:19.270Z,23
2017-08-09T00:25:22.106Z,23
2017-08-09T00:26:24.599Z,23
2017-08-09T00:27:27.774Z,23
2017-08-09T00:28:30.630Z,23
2017-08-09T00:29:33.564Z,23
2017-08-09T00:30:36.129Z,23
2017-08-09T00:31:38.967Z,23
2017-08-09T00:32:41.826Z,23
2017-08-09T00:33:44.363Z,23
2017-08-09T00:34:46.864Z,23
2017-08-09T00:35:50.032Z,23
2017-08-09T00:36:52.527Z,23
2017-08-09T00:37:55.122Z,23
2017-08-09T00:38:57.624Z,23
2017-08-09T00:40:00.462Z,23
2017-08-09T00:41:03.977Z,23
2017-08-09T00:42:07.257Z,23
2017-08-09T00:43:09.759Z,23
2017-08-09T00:44:12.255Z,23
2017-08-09T00:45:14.881Z,23
2017-08-09T00:46:17.392Z,23
2017-08-09T00:47:20.219Z,23
2017-08-09T00:48:22.716Z,23
2017-08-09T00:49:25.546Z,23
2017-08-09T00:50:28.555Z,23
2017-08-09T00:51:31.051Z,23
2017-08-09T00:52:33.716Z,23
2017-08-09T00:53:36.253Z,23
2017-08-09T00:54:38.776Z,23
2017-08-09T00:55:41.284Z,23
2017-08-09T00:56:43.788Z,23
2017-08-09T00:57:46.298Z,22.9
2017-08-09T00:58:48.781Z,22.9
2017-08-09T00:59:51.278Z,22.9
2017-08-09T01:00:53.771Z,22.9
2017-08-09T01:01:56.936Z,22.9
2017-08-09T01:02:59.435Z,22.9
2017-08-09T01:04:02.395Z,22.9
2017-08-09T01:05:04.919Z,22.9
2017-08-09T01:06:08.039Z,22.9
2017-08-09T01:07:10.527Z,22.9
2017-08-09T01:08:13.010Z,22.9
2017-08-09T01:09:15.494Z,22.9
2017-08-09T01:10:18.328Z,22.9
2017-08-09T01:11:20.827Z,22.9
2017-08-09T01:12:23.677Z,22.9
2017-08-09T01:13:26.179Z,22.9
2017-08-09T01:14:28.696Z,22.9
2017-08-09T01:15:31.183Z,22.9
2017-08-09T01:16:33.684Z,22.8
2017-08-09T01:17:36.386Z,22.8
2017-08-09T01:18:38.878Z,22.8
2017-08-09T01:19:41.441Z,22.8
2017-08-09T01:20:44.371Z,22.9
2017-08-09T01:21:46.856Z,22.8
2017-08-09T01:22:50.352Z,22.8
2017-08-09T01:23:52.852Z,22.8
2017-08-09T01:24:55.354Z,22.8
2017-08-09T01:25:57.850Z,22.8
2017-08-09T01:27:00.319Z,22.8
2017-08-09T01:28:04.089Z,22.8
2017-08-09T01:29:06.959Z,22.8
2017-08-09T01:30:09.484Z,22.8
2017-08-09T01:31:12.294Z,22.8
2017-08-09T01:32:14.791Z,22.8
2017-08-09T01:33:17.632Z,22.8
2017-08-09T01:34:20.133Z,22.8
2017-08-09T01:35:22.974Z,22.8
2017-08-09T01:36:25.482Z,22.8
2017-08-09T01:37:28.304Z,22.8
2017-08-09T01:38:30.899Z,22.8
2017-08-09T01:39:33.388Z,22.8
2017-08-09T01:40:36.214Z,22.8
2017-08-09T01:41:39.050Z,22.8
2017-08-09T01:42:41.540Z,22.8
2017-08-09T01:43:44.022Z,22.8
2017-08-09T01:44:47.233Z,22.8
2017-08-09T01:45:49.714Z,22.8
2017-08-09T01:46:52.224Z,22.7
2017-08-09T01:47:54.721Z,22.7
2017-08-09T01:48:57.216Z,22.7
2017-08-09T01:49:59.709Z,22.7
2017-08-09T01:51:02.586Z,22.7
2017-08-09T01:52:05.171Z,22.7
2017-08-09T01:53:07.689Z,22.7
2017-08-09T01:54:10.639Z,22.7
2017-08-09T01:55:13.469Z,22.7
2017-08-09T01:56:15.962Z,22.7
2017-08-09T01:57:18.443Z,22.6
2017-08-09T01:58:20.946Z,22.6
2017-08-09T01:59:23.468Z,22.6
2017-08-09T02:00:26.300Z,22.6
2017-08-09T02:01:28.804Z,22.6
2017-08-09T02:02:31.617Z,22.6
2017-08-09T02:03:34.462Z,22.6
2017-08-09T02:04:37.463Z,22.6
2017-08-09T02:05:39.953Z,22.6
2017-08-09T02:06:42.441Z,22.6
2017-08-09T02:07:44.925Z,22.6
2017-08-09T02:08:47.419Z,22.6
2017-08-09T02:09:49.922Z,22.6
2017-08-09T02:10:52.419Z,22.5
2017-08-09T02:11:54.911Z,22.5
2017-08-09T02:12:57.406Z,22.5
2017-08-09T02:13:59.889Z,22.5
2017-08-09T02:15:02.380Z,22.5
2017-08-09T02:16:04.875Z,22.5
2017-08-09T02:17:07.353Z,22.4
2017-08-09T02:18:10.179Z,22.4
2017-08-09T02:19:13.391Z,22.4
2017-08-09T02:20:16.217Z,22.4
2017-08-09T02:21:19.061Z,22.4
2017-08-09T02:22:22.204Z,22.4
2017-08-09T02:23:24.698Z,22.4
2017-08-09T02:24:27.216Z,22.3
2017-08-09T02:25:30.057Z,22.4
2017-08-09T02:26:32.539Z,22.3
2017-08-09T02:27:35.050Z,22.3
2017-08-09T02:28:37.539Z,22.3
2017-08-09T02:29:40.155Z,22.3
2017-08-09T02:30:42.655Z,22.2
2017-08-09T02:31:45.165Z,22.2
2017-08-09T02:32:48.313Z,22.2
2017-08-09T02:33:51.510Z,22.1
2017-08-09T02:34:54.049Z,22.1
2017-08-09T02:35:56.903Z,22.1
2017-08-09T02:36:59.405Z,22.1
2017-08-09T02:38:01.917Z,22
2017-08-09T02:39:04.410Z,22
2017-08-09T02:40:07.589Z,22
2017-08-09T02:41:10.754Z,22
2017-08-09T02:42:13.925Z,21.9
2017-08-09T02:43:16.808Z,21.9
2017-08-09T02:44:19.301Z,21.9
2017-08-09T02:45:21.806Z,21.9
2017-08-09T02:46:24.302Z,21.9
2017-08-09T02:47:26.812Z,21.8
2017-08-09T02:48:30.527Z,21.8
2017-08-09T02:49:33.033Z,21.8
2017-08-09T02:50:35.524Z,21.8
2017-08-09T02:51:38.023Z,21.8
2017-08-09T02:52:40.524Z,21.8
2017-08-09T02:53:43.356Z,21.8
2017-08-09T02:54:45.859Z,21.7
2017-08-09T02:55:48.693Z,21.7
2017-08-09T02:56:51.184Z,21.7
2017-08-09T02:57:53.936Z,21.7
2017-08-09T02:58:56.430Z,21.6
2017-08-09T02:59:58.913Z,21.6
2017-08-09T03:01:01.420Z,21.6
2017-08-09T03:02:04.737Z,21.6
2017-08-09T03:03:07.237Z,21.5
2017-08-09T03:04:10.399Z,21.5
2017-08-09T03:05:12.893Z,21.5
2017-08-09T03:06:15.952Z,21.5
2017-08-09T03:07:18.460Z,21.5
2017-08-09T03:08:20.951Z,21.5
2017-08-09T03:09:23.492Z,21.4
2017-08-09T03:10:25.989Z,21.4
2017-08-09T03:11:28.584Z,21.4
2017-08-09T03:12:31.426Z,21.3
2017-08-09T03:13:34.248Z,21.3
2017-08-09T03:14:36.742Z,21.3
2017-08-09T03:15:39.222Z,21.3
2017-08-09T03:16:41.906Z,21.3
2017-08-09T03:17:44.408Z,21.3
2017-08-09T03:18:47.224Z,21.3
2017-08-09T03:19:49.720Z,21.3
2017-08-09T03:20:52.433Z,21.3
2017-08-09T03:21:55.260Z,21.3
2017-08-09T03:22:58.090Z,21.2
2017-08-09T03:24:00.585Z,21.2
2017-08-09T03:25:03.412Z,21.2
2017-08-09T03:26:06.374Z,21.2
2017-08-09T03:27:08.859Z,21.2
2017-08-09T03:28:11.340Z,21.2
2017-08-09T03:29:13.863Z,21.2
2017-08-09T03:30:16.708Z,21.2
2017-08-09T03:31:19.417Z,21.2
2017-08-09T03:32:21.931Z,21.2
2017-08-09T03:33:24.422Z,21.2
2017-08-09T03:34:26.930Z,21.2
2017-08-09T03:35:29.421Z,21.2
2017-08-09T03:36:31.920Z,21.2
2017-08-09T03:37:35.112Z,21.2
2017-08-09T03:38:37.680Z,21.3
2017-08-09T03:39:40.172Z,21.3
2017-08-09T03:40:43.003Z,21.3
2017-08-09T03:41:45.569Z,21.3
2017-08-09T03:42:48.105Z,21.3
2017-08-09T03:43:50.587Z,21.3
2017-08-09T03:44:53.446Z,21.3
2017-08-09T03:45:55.932Z,21.3
2017-08-09T03:46:58.436Z,21.3
2017-08-09T03:48:01.262Z,21.3
2017-08-09T03:49:03.760Z,21.3
2017-08-09T03:50:06.255Z,21.3
2017-08-09T03:51:09.435Z,21.2
2017-08-09T03:52:11.920Z,21.2
2017-08-09T03:53:14.409Z,21.2
2017-08-09T03:54:16.912Z,21.2
2017-08-09T03:55:19.763Z,21.1
2017-08-09T03:56:22.601Z,21.1
2017-08-09T03:57:25.089Z,21.1
2017-08-09T03:58:27.582Z,21.1
2017-08-09T03:59:30.394Z,21
2017-08-09T04:00:32.918Z,21
2017-08-09T04:01:35.424Z,21
2017-08-09T04:02:37.906Z,21
2017-08-09T04:03:40.746Z,20.9
2017-08-09T04:04:43.230Z,20.9
2017-08-09T04:05:45.715Z,20.9
2017-08-09T04:06:48.607Z,20.9
2017-08-09T04:07:51.089Z,20.9
2017-08-09T04:08:53.903Z,20.8
2017-08-09T04:09:56.404Z,20.8
2017-08-09T04:10:59.257Z,20.7
2017-08-09T04:12:02.098Z,20.7
2017-08-09T04:13:05.270Z,20.6
2017-08-09T04:14:08.103Z,20.7
2017-08-09T04:15:10.588Z,20.6
2017-08-09T04:16:13.097Z,20.6
2017-08-09T04:17:15.581Z,20.6
2017-08-09T04:18:18.055Z,20.6
2017-08-09T04:19:20.556Z,20.5
2017-08-09T04:20:23.048Z,20.5
2017-08-09T04:21:26.238Z,20.5
2017-08-09T04:22:30.090Z,20.4
2017-08-09T04:23:32.909Z,20.4
2017-08-09T04:24:35.746Z,20.4
2017-08-09T04:25:38.253Z,20.4
2017-08-09T04:26:40.732Z,20.4
2017-08-09T04:27:43.227Z,20.4
2017-08-09T04:28:45.703Z,20.4
2017-08-09T04:29:48.223Z,20.4
2017-08-09T04:30:50.720Z,20.4
2017-08-09T04:31:53.553Z,20.4
2017-08-09T04:32:56.027Z,20.3
2017-08-09T04:33:58.875Z,20.3
2017-08-09T04:35:01.414Z,20.3
2017-08-09T04:36:04.252Z,20.3
2017-08-09T04:37:06.740Z,20.3
2017-08-09T04:38:09.232Z,20.3
2017-08-09T04:39:12.061Z,20.3
2017-08-09T04:40:14.569Z,20.3
2017-08-09T04:41:17.063Z,20.3
2017-08-09T04:42:19.877Z,20.2
2017-08-09T04:43:22.380Z,20.2
2017-08-09T04:44:25.256Z,20.2
2017-08-09T04:45:27.758Z,20.2
2017-08-09T04:46:30.584Z,20.2
2017-08-09T04:47:33.069Z,20.2
2017-08-09T04:48:35.921Z,20.2
2017-08-09T04:49:38.440Z,20.2
2017-08-09T04:50:41.258Z,20.2
2017-08-09T04:51:43.776Z,20.2
2017-08-09T04:52:46.260Z,20.2
2017-08-09T04:53:48.755Z,20.2
2017-08-09T04:54:51.239Z,20.2
2017-08-09T04:55:54.094Z,20.2
2017-08-09T04:56:56.578Z,20.2
2017-08-09T04:57:59.074Z,20.2
2017-08-09T04:59:01.566Z,20.2
2017-08-09T05:00:04.413Z,20.2
2017-08-09T05:01:06.922Z,20.2
2017-08-09T05:02:09.453Z,20.3
2017-08-09T05:03:11.958Z,20.3
2017-08-09T05:04:14.428Z,20.3
2017-08-09T05:05:16.923Z,20.3
2017-08-09T05:06:19.756Z,20.3
2017-08-09T05:07:22.234Z,20.3
2017-08-09T05:08:25.103Z,20.4
2017-08-09T05:09:27.600Z,20.3
2017-08-09T05:10:31.111Z,20.4
2017-08-09T05:11:33.613Z,20.4
2017-08-09T05:12:36.430Z,20.4
2017-08-09T05:13:39.264Z,20.4
2017-08-09T05:14:42.116Z,20.5
2017-08-09T05:15:44.602Z,20.5
2017-08-09T05:16:47.430Z,20.5
2017-08-09T05:17:49.932Z,20.5
2017-08-09T05:18:52.418Z,20.5
2017-08-09T05:19:55.252Z,20.6
2017-08-09T05:20:57.751Z,20.6
2017-08-09T05:22:00.596Z,20.6
2017-08-09T05:23:03.449Z,20.6
2017-08-09T05:24:06.297Z,20.6
2017-08-09T05:25:08.769Z,20.7
2017-08-09T05:26:11.272Z,20.7
2017-08-09T05:27:13.774Z,20.7
2017-08-09T05:28:16.254Z,20.8
2017-08-09T05:29:18.749Z,20.8
2017-08-09T05:30:21.608Z,20.8
2017-08-09T05:31:24.438Z,20.9
2017-08-09T05:32:26.927Z,20.9
2017-08-09T05:33:29.421Z,20.9
2017-08-09T05:34:31.909Z,20.9
2017-08-09T05:35:34.452Z,20.9
2017-08-09T05:36:37.279Z,20.9
2017-08-09T05:37:40.095Z,21
2017-08-09T05:38:42.595Z,21
2017-08-09T05:39:45.473Z,21
2017-08-09T05:40:48.655Z,21
2017-08-09T05:41:51.148Z,21
2017-08-09T05:42:53.654Z,21
2017-08-09T05:43:56.470Z,21
2017-08-09T05:44:58.965Z,21
2017-08-09T05:46:01.462Z,21.1
2017-08-09T05:47:04.289Z,21.1
2017-08-09T05:48:07.484Z,21.1
2017-08-09T05:49:09.986Z,21.2
2017-08-09T05:50:12.494Z,21.2
2017-08-09T05:51:15.003Z,21.2
2017-08-09T05:52:17.500Z,21.2
2017-08-09T05:53:20.019Z,21.3
2017-08-09T05:54:22.516Z,21.3
2017-08-09T05:55:25.013Z,21.4
2017-08-09T05:56:27.838Z,21.5
2017-08-09T05:57:30.676Z,21.5
2017-08-09T05:58:33.510Z,21.5
2017-08-09T05:59:36.019Z,21.5
2017-08-09T06:00:38.851Z,21.5
2017-08-09T06:01:41.353Z,21.5
2017-08-09T06:02:43.862Z,21.5
2017-08-09T06:03:46.675Z,21.5
2017-08-09T06:04:49.189Z,21.5
2017-08-09T06:05:51.681Z,21.5
2017-08-09T06:06:54.173Z,21.4
2017-08-09T06:07:56.669Z,21.4
2017-08-09T06:08:59.508Z,21.5
2017-08-09T06:10:02.666Z,21.4
2017-08-09T06:11:05.172Z,21.4
2017-08-09T06:12:07.662Z,21.4
2017-08-09T06:13:10.166Z,21.3
2017-08-09T06:14:13.014Z,21.3
2017-08-09T06:15:15.491Z,21.3
2017-08-09T06:16:17.997Z,21.3
2017-08-09T06:17:20.483Z,21.2
2017-08-09T06:18:23.314Z,21.2
2017-08-09T06:19:25.828Z,21.2
2017-08-09T06:20:28.321Z,21.2
2017-08-09T06:21:31.161Z,21.2
2017-08-09T06:22:33.690Z,21.2
2017-08-09T06:23:36.183Z,21.2
2017-08-09T06:24:39.013Z,21.2
2017-08-09T06:25:41.839Z,21.2
2017-08-09T06:26:44.697Z,21.2
2017-08-09T06:27:47.194Z,21.2
2017-08-09T06:28:50.029Z,21.2
2017-08-09T06:29:52.545Z,21.2
2017-08-09T06:30:55.378Z,21.2
2017-08-09T06:31:57.864Z,21.2
2017-08-09T06:33:00.363Z,21.2
2017-08-09T06:34:03.189Z,21.2
2017-08-09T06:35:05.685Z,21.2
2017-08-09T06:36:08.169Z,21.2
2017-08-09T06:37:10.648Z,21.2
2017-08-09T06:38:13.143Z,21.2
2017-08-09T06:39:15.987Z,21.2
2017-08-09T06:40:18.833Z,21.2
2017-08-09T06:41:21.342Z,21.2
2017-08-09T06:42:23.834Z,21.2
2017-08-09T06:43:26.328Z,21.2
2017-08-09T06:44:28.836Z,21.2
2017-08-09T06:45:31.339Z,21.2
2017-08-09T06:46:34.162Z,21.3
2017-08-09T06:47:36.666Z,21.3
2017-08-09T06:48:39.161Z,21.3
2017-08-09T06:49:41.647Z,21.4
2017-08-09T06:50:44.137Z,21.4
2017-08-09T06:51:46.612Z,21.4
2017-08-09T06:52:49.095Z,21.4
2017-08-09T06:53:52.293Z,21.5
2017-08-09T06:54:55.119Z,21.5
2017-08-09T06:55:57.612Z,21.6
2017-08-09T06:57:00.119Z,21.5
2017-08-09T06:58:02.961Z,21.6
2017-08-09T06:59:05.795Z,21.6
2017-08-09T07:00:08.288Z,21.6
2017-08-09T07:01:10.780Z,21.6
2017-08-09T07:02:13.284Z,21.6
2017-08-09T07:03:15.782Z,21.7
2017-08-09T07:04:18.305Z,21.7
2017-08-09T07:05:21.137Z,21.7
2017-08-09T07:06:23.651Z,21.8
2017-08-09T07:07:26.150Z,21.8
2017-08-09T07:08:28.636Z,21.8
2017-08-09T07:09:31.133Z,21.9
2017-08-09T07:10:33.634Z,21.9
2017-08-09T07:11:36.125Z,21.9
2017-08-09T07:12:39.311Z,21.9
2017-08-09T07:13:41.803Z,21.9
2017-08-09T07:14:44.989Z,22
2017-08-09T07:15:47.504Z,22
2017-08-09T07:16:50.370Z,22
2017-08-09T07:17:53.205Z,22
2017-08-09T07:18:55.706Z,22.1
2017-08-09T07:19:58.178Z,22.1
2017-08-09T07:21:00.671Z,22.1
2017-08-09T07:22:03.854Z,22.2
2017-08-09T07:23:06.347Z,22.2
2017-08-09T07:24:08.841Z,22.2
2017-08-09T07:25:11.345Z,22.2
2017-08-09T07:26:14.169Z,22.3
2017-08-09T07:27:16.997Z,22.3
2017-08-09T07:28:19.835Z,22.4
2017-08-09T07:29:22.338Z,22.4
2017-08-09T07:30:24.835Z,22.5
2017-08-09T07:31:27.317Z,22.5
2017-08-09T07:32:30.157Z,22.5
2017-08-09T07:33:32.657Z,22.6
2017-08-09T07:34:35.150Z,22.6
2017-08-09T07:35:37.643Z,22.6
2017-08-09T07:36:40.470Z,22.7
2017-08-09T07:37:43.283Z,22.7
2017-08-09T07:38:45.798Z,22.8
2017-08-09T07:39:48.657Z,22.9
2017-08-09T07:40:51.172Z,23
2017-08-09T07:41:53.684Z,23.1
2017-08-09T07:42:56.537Z,23.1
2017-08-09T07:43:59.032Z,23.2
2017-08-09T07:45:01.541Z,23.3
2017-08-09T07:46:04.698Z,23.4
2017-08-09T07:47:07.186Z,23.4
2017-08-09T07:48:09.682Z,23.5
2017-08-09T07:49:12.162Z,23.6
2017-08-09T07:50:14.657Z,23.6
2017-08-09T07:51:17.169Z,23.7
2017-08-09T07:52:19.653Z,23.7
2017-08-09T07:53:22.169Z,23.8
2017-08-09T07:54:24.650Z,23.8
2017-08-09T07:55:27.146Z,23.9
2017-08-09T07:56:29.667Z,23.9
2017-08-09T07:57:32.204Z,24
2017-08-09T07:58:34.700Z,24
2017-08-09T07:59:37.553Z,24.1
2017-08-09T08:00:40.063Z,24.1
2017-08-09T08:01:42.568Z,24.2
2017-08-09T08:02:45.044Z,24.2
2017-08-09T08:03:47.556Z,24.2
2017-08-09T08:04:50.409Z,24.2
2017-08-09T08:05:52.916Z,24.2
2017-08-09T08:06:55.415Z,24.2
2017-08-09T08:07:57.908Z,24.3
2017-08-09T08:09:00.405Z,24.3
2017-08-09T08:10:03.253Z,24.3
2017-08-09T08:11:06.079Z,24.3
2017-08-09T08:12:08.592Z,24.4
2017-08-09T08:13:11.432Z,24.4
2017-08-09T08:14:14.264Z,24.4
2017-08-09T08:15:17.116Z,24.5
2017-08-09T08:16:19.629Z,24.5
2017-08-09T08:17:22.115Z,24.5
2017-08-09T08:18:24.631Z,24.6
2017-08-09T08:19:27.152Z,24.6
2017-08-09T08:20:29.655Z,24.6
2017-08-09T08:21:32.150Z,24.6
2017-08-09T08:22:34.646Z,24.6
2017-08-09T08:23:37.146Z,24.6
2017-08-09T08:24:39.656Z,24.6
2017-08-09T08:25:42.128Z,24.7
2017-08-09T08:26:44.650Z,24.7
2017-08-09T08:27:47.147Z,24.7
2017-08-09T08:28:49.964Z,24.8
2017-08-09T08:29:52.473Z,24.8
2017-08-09T08:30:54.979Z,24.8
2017-08-09T08:31:57.461Z,24.9
2017-08-09T08:32:59.973Z,24.9
2017-08-09T08:34:02.461Z,25
2017-08-09T08:35:04.962Z,25
2017-08-09T08:36:07.496Z,25.1
2017-08-09T08:37:09.991Z,25.1
2017-08-09T08:38:12.834Z,25.1
2017-08-09T08:39:16.015Z,25.2
2017-08-09T08:40:18.887Z,25.2
2017-08-09T08:41:21.414Z,25.3
2017-08-09T08:42:23.928Z,25.3
2017-08-09T08:43:26.423Z,25.3
2017-08-09T08:44:28.948Z,25.4
2017-08-09T08:45:31.447Z,25.4
2017-08-09T08:46:33.951Z,25.5
2017-08-09T08:47:36.806Z,25.5
2017-08-09T08:48:39.303Z,25.6
2017-08-09T08:49:41.810Z,25.7
2017-08-09T08:50:44.330Z,25.7
2017-08-09T08:51:46.823Z,25.7
2017-08-09T08:52:49.313Z,25.8
2017-08-09T08:53:51.825Z,25.8
2017-08-09T08:54:54.333Z,25.8
2017-08-09T08:55:57.174Z,25.8
2017-08-09T08:57:00.026Z,25.8
2017-08-09T08:58:02.526Z,25.9
2017-08-09T08:59:05.037Z,25.9
2017-08-09T09:00:07.865Z,26
2017-08-09T09:01:10.383Z,26
2017-08-09T09:02:12.888Z,26.1
2017-08-09T09:03:15.737Z,26.2
2017-08-09T09:04:18.239Z,26.2
2017-08-09T09:05:20.737Z,26.3
2017-08-09T09:06:23.227Z,26.4
2017-08-09T09:07:25.726Z,26.5
2017-08-09T09:08:28.226Z,26.5
2017-08-09T09:09:30.726Z,26.6
2017-08-09T09:10:33.561Z,26.7
2017-08-09T09:11:36.071Z,26.7
2017-08-09T09:12:38.568Z,26.8
2017-08-09T09:13:41.423Z,27
2017-08-09T09:14:43.923Z,27
2017-08-09T09:15:46.443Z,27.2
2017-08-09T09:16:48.965Z,27.3
2017-08-09T09:17:51.824Z,27.5
2017-08-09T09:18:54.673Z,27.7
2017-08-09T09:19:57.534Z,27.7
2017-08-09T09:21:00.109Z,27.8
2017-08-09T09:22:03.301Z,27.9
2017-08-09T09:23:06.135Z,28
2017-08-09T09:24:08.665Z,28.1
2017-08-09T09:25:11.163Z,28.2
2017-08-09T09:26:13.663Z,28.4
2017-08-09T09:27:16.180Z,28.6
2017-08-09T09:28:18.665Z,28.7
2017-08-09T09:29:21.168Z,28.8
2017-08-09T09:30:24.015Z,28.8
2017-08-09T09:31:26.518Z,28.9
2017-08-09T09:32:29.027Z,29
2017-08-09T09:33:31.888Z,29
2017-08-09T09:34:34.725Z,29.2
2017-08-09T09:35:37.263Z,29.3
2017-08-09T09:36:39.772Z,29.4
2017-08-09T09:37:42.629Z,29.6
2017-08-09T09:38:45.131Z,29.7
2017-08-09T09:39:47.645Z,29.9
2017-08-09T09:40:50.159Z,30.1
2017-08-09T09:41:52.679Z,30.3
2017-08-09T09:42:55.537Z,30.5
2017-08-09T09:43:58.028Z,30.5
2017-08-09T09:45:01.234Z,30.6
2017-08-09T09:46:03.769Z,30.7
2017-08-09T09:47:06.346Z,30.8
2017-08-09T09:48:09.217Z,30.8
2017-08-09T09:49:12.417Z,31
2017-08-09T09:50:14.954Z,31.1
2017-08-09T09:51:17.809Z,31.1
2017-08-09T09:52:20.358Z,31.2
2017-08-09T09:53:22.869Z,31.2
2017-08-09T09:54:25.378Z,31.3
2017-08-09T09:55:27.957Z,31.3
2017-08-09T09:56:30.850Z,31.3
2017-08-09T09:57:33.369Z,31.4
2017-08-09T09:58:35.917Z,31.5
2017-08-09T09:59:38.424Z,31.5
2017-08-09T10:00:41.991Z,31.6
2017-08-09T10:01:44.505Z,31.7
2017-08-09T10:02:47.396Z,31.7
2017-08-09T10:03:49.912Z,31.8
2017-08-09T10:04:52.447Z,31.7
2017-08-09T10:05:54.955Z,31.8
2017-08-09T10:06:57.572Z,31.8
2017-08-09T10:08:00.171Z,31.8
2017-08-09T10:09:03.049Z,31.8
2017-08-09T10:10:06.042Z,31.8
2017-08-09T10:11:08.585Z,31.9
2017-08-09T10:12:11.439Z,31.8
2017-08-09T10:13:13.955Z,31.8
2017-08-09T10:14:16.867Z,31.7
2017-08-09T10:15:19.741Z,31.6
2017-08-09T10:16:22.265Z,31.6
2017-08-09T10:17:25.150Z,31.6
2017-08-09T10:18:27.658Z,31.6
2017-08-09T10:19:30.502Z,31.6
2017-08-09T10:20:33.222Z,31.5
2017-08-09T10:21:36.100Z,31.6
2017-08-09T10:22:39.322Z,31.6
2017-08-09T10:23:41.870Z,31.6
2017-08-09T10:24:44.421Z,31.6
2017-08-09T10:25:47.093Z,31.7
2017-08-09T10:26:49.943Z,31.7
2017-08-09T10:27:52.437Z,31.8
2017-08-09T10:28:54.954Z,31.8
2017-08-09T10:29:57.485Z,31.9
2017-08-09T10:31:00.339Z,32
2017-08-09T10:32:03.338Z,31.9
2017-08-09T10:33:05.892Z,31.9
2017-08-09T10:34:08.859Z,31.9
2017-08-09T10:35:11.464Z,31.9
2017-08-09T10:36:14.103Z,31.8
2017-08-09T10:37:16.600Z,31.8
2017-08-09T10:38:19.571Z,31.9
2017-08-09T10:39:22.090Z,31.9
2017-08-09T10:40:24.679Z,32.1
2017-08-09T10:41:27.183Z,32.1
2017-08-09T10:42:29.719Z,32.1
2017-08-09T10:43:32.408Z,32.1
2017-08-09T10:44:34.937Z,32.1
2017-08-09T10:45:37.452Z,32
2017-08-09T10:46:39.974Z,31.7
2017-08-09T10:47:42.542Z,31.6
2017-08-09T10:48:45.142Z,31.4
2017-08-09T10:49:48.347Z,31.3
2017-08-09T10:50:50.942Z,31.2
2017-08-09T10:51:53.810Z,31.2
2017-08-09T10:52:56.438Z,31.2
2017-08-09T10:53:58.936Z,31.3
2017-08-09T10:55:01.508Z,31.4
2017-08-09T10:56:04.706Z,31.5
2017-08-09T10:57:07.345Z,31.7
2017-08-09T10:58:09.940Z,31.8
2017-08-09T10:59:12.911Z,31.9
2017-08-09T11:00:15.864Z,31.9
2017-08-09T11:01:18.739Z,31.9
2017-08-09T11:02:22.300Z,31.9
2017-08-09T11:03:24.831Z,32
2017-08-09T11:04:28.675Z,31.9
2017-08-09T11:05:31.264Z,31.9
2017-08-09T11:06:33.839Z,32
2017-08-09T11:07:36.378Z,32.1
2017-08-09T11:08:38.977Z,32.1
2017-08-09T11:09:41.995Z,32.2
2017-08-09T11:10:45.149Z,32.4
2017-08-09T11:11:47.812Z,32.4
2017-08-09T11:12:51.678Z,32.4
2017-08-09T11:13:54.252Z,32.3
2017-08-09T11:14:57.987Z,32.2
2017-08-09T11:16:00.488Z,32.1
2017-08-09T11:17:03.628Z,31.9
2017-08-09T11:18:06.848Z,31.7
2017-08-09T11:19:09.514Z,31.6
2017-08-09T11:20:12.492Z,31.5
2017-08-09T11:21:15.225Z,31.4
2017-08-09T11:22:17.756Z,31.4
2017-08-09T11:23:20.257Z,31.4
2017-08-09T11:24:22.917Z,31.3
2017-08-09T11:25:25.425Z,31.1
2017-08-09T11:26:28.266Z,31
2017-08-09T11:27:30.780Z,30.9
2017-08-09T11:28:33.283Z,30.8
2017-08-09T11:29:35.790Z,30.7
2017-08-09T11:30:38.282Z,30.7
2017-08-09T11:31:41.178Z,30.6
2017-08-09T11:32:43.742Z,30.6
2017-08-09T11:33:46.397Z,30.6
2017-08-09T11:34:49.441Z,30.7
2017-08-09T11:35:53.027Z,30.7
2017-08-09T11:36:56.129Z,30.8
2017-08-09T11:37:59.000Z,30.9
2017-08-09T11:39:01.609Z,30.9
2017-08-09T11:40:05.123Z,31
2017-08-09T11:41:07.948Z,31
2017-08-09T11:42:11.166Z,31
2017-08-09T11:43:13.904Z,30.9
2017-08-09T11:44:16.574Z,31
2017-08-09T11:45:19.560Z,30.9
2017-08-09T11:46:22.568Z,31
2017-08-09T11:47:25.561Z,31.1
2017-08-09T11:48:28.089Z,31.2
2017-08-09T11:49:30.750Z,31.3
2017-08-09T11:50:33.833Z,31.4
2017-08-09T11:51:36.718Z,31.5
2017-08-09T11:52:39.571Z,31.6
2017-08-09T11:53:42.083Z,31.6
2017-08-09T11:54:44.935Z,31.6
2017-08-09T11:55:47.448Z,31.6
2017-08-09T11:56:50.324Z,31.6
2017-08-09T11:57:52.824Z,31.5
2017-08-09T11:58:56.006Z,31.5
2017-08-09T11:59:58.516Z,31.5
2017-08-09T12:01:01.015Z,31.5
2017-08-09T12:02:03.526Z,31.4
2017-08-09T12:03:06.030Z,31.4
2017-08-09T12:04:08.852Z,31.4
2017-08-09T12:05:11.353Z,31.3
2017-08-09T12:06:13.857Z,31.2
2017-08-09T12:07:16.823Z,31.1
2017-08-09T12:08:19.657Z,31.1
2017-08-09T12:09:22.146Z,31
2017-08-09T12:10:25.014Z,31
2017-08-09T12:11:27.880Z,31
2017-08-09T12:12:30.376Z,30.9
2017-08-09T12:13:33.213Z,31
2017-08-09T12:14:36.185Z,31
2017-08-09T12:15:39.017Z,30.9
2017-08-09T12:16:41.879Z,30.8
2017-08-09T12:17:45.100Z,30.8
2017-08-09T12:18:47.600Z,30.8
2017-08-09T12:19:50.452Z,30.7
2017-08-09T12:20:53.407Z,30.7
2017-08-09T12:21:56.797Z,30.7
2017-08-09T12:22:59.305Z,30.6
2017-08-09T12:24:01.808Z,30.6
2017-08-09T12:25:06.322Z,30.6
2017-08-09T12:26:08.824Z,30.5
2017-08-09T12:27:11.513Z,30.4
2017-08-09T12:28:14.107Z,30.4
2017-08-09T12:29:16.961Z,30.3
2017-08-09T12:30:19.486Z,30.2
2017-08-09T12:31:21.971Z,30.2
2017-08-09T12:32:24.920Z,30.1
2017-08-09T12:33:27.755Z,30
2017-08-09T12:34:30.254Z,30
2017-08-09T12:35:32.758Z,29.9
2017-08-09T12:36:35.269Z,29.9
2017-08-09T12:37:38.807Z,30
2017-08-09T12:38:41.340Z,29.9
2017-08-09T12:39:43.864Z,29.9
2017-08-09T12:40:46.720Z,29.9
2017-08-09T12:41:49.922Z,29.9
2017-08-09T12:42:52.759Z,29.9
2017-08-09T12:43:55.264Z,29.9
2017-08-09T12:44:57.791Z,29.9
2017-08-09T12:46:00.289Z,29.8
2017-08-09T12:47:03.497Z,29.8
2017-08-09T12:48:05.999Z,29.8
2017-08-09T12:49:08.531Z,29.8
2017-08-09T12:50:11.022Z,29.8
2017-08-09T12:51:13.535Z,29.8
2017-08-09T12:52:16.022Z,29.9
2017-08-09T12:53:18.555Z,30
2017-08-09T12:54:21.063Z,30.1
2017-08-09T12:55:24.247Z,30.2
2017-08-09T12:56:26.743Z,30.2
2017-08-09T12:57:29.255Z,30.3
2017-08-09T12:58:31.770Z,30.3
2017-08-09T12:59:34.264Z,30.4
2017-08-09T13:00:36.774Z,30.5
2017-08-09T13:01:39.273Z,30.6
2017-08-09T13:02:41.770Z,30.6
2017-08-09T13:03:44.275Z,30.6
2017-08-09T13:04:47.129Z,30.6
2017-08-09T13:05:49.616Z,30.6
2017-08-09T13:06:52.119Z,30.6
2017-08-09T13:07:54.953Z,30.5
2017-08-09T13:08:57.453Z,30.4
2017-08-09T13:10:00.659Z,30.4
2017-08-09T13:11:03.149Z,30.3
2017-08-09T13:12:05.991Z,30.3
2017-08-09T13:13:08.834Z,30.2
2017-08-09T13:14:11.681Z,30.2
2017-08-09T13:15:14.179Z,30.3
2017-08-09T13:16:16.681Z,30.3
2017-08-09T13:17:19.506Z,30.4
2017-08-09T13:18:22.027Z,30.5
2017-08-09T13:19:24.533Z,30.6
2017-08-09T13:20:27.027Z,30.6
2017-08-09T13:21:29.532Z,30.7
2017-08-09T13:22:32.043Z,30.7
2017-08-09T13:23:34.553Z,30.8
2017-08-09T13:24:37.052Z,30.8
2017-08-09T13:25:39.554Z,30.8
2017-08-09T13:26:42.057Z,30.8
2017-08-09T13:27:45.235Z,30.8
2017-08-09T13:28:47.771Z,30.8
2017-08-09T13:29:50.632Z,30.8
2017-08-09T13:30:53.128Z,30.8
2017-08-09T13:31:55.983Z,30.9
2017-08-09T13:32:58.482Z,30.9
2017-08-09T13:34:00.987Z,30.9
2017-08-09T13:35:03.842Z,30.9
2017-08-09T13:36:06.711Z,30.9
2017-08-09T13:37:09.548Z,30.8
2017-08-09T13:38:12.076Z,30.8
2017-08-09T13:39:14.939Z,30.8
2017-08-09T13:40:18.132Z,30.8
2017-08-09T13:41:20.652Z,30.7
2017-08-09T13:42:23.164Z,30.6
2017-08-09T13:43:26.029Z,30.6
2017-08-09T13:44:28.887Z,30.5
2017-08-09T13:45:32.083Z,30.6
2017-08-09T13:46:34.596Z,30.6
2017-08-09T13:47:37.102Z,30.8
2017-08-09T13:48:39.610Z,30.9
2017-08-09T13:49:42.108Z,31
2017-08-09T13:50:44.942Z,31.2
2017-08-09T13:51:47.434Z,31.4
2017-08-09T13:52:49.928Z,31.5
2017-08-09T13:53:52.459Z,31.6
2017-08-09T13:54:54.961Z,31.8
2017-08-09T13:55:57.462Z,31.9
2017-08-09T13:56:59.984Z,32.1
2017-08-09T13:58:02.836Z,32.1
2017-08-09T13:59:06.036Z,32.2
2017-08-09T14:00:08.902Z,32.3